createdAt,value
2023-03-15T00:00:22.424Z,0.00
2023-03-15T00:02:48.913Z,0.00
2023-03-15T00:05:15.552Z,0.00
2023-03-15T00:07:41.994Z,0.00
2023-03-15T00:10:09.043Z,0.00
2023-03-15T00:12:35.463Z,0.00
2023-03-15T00:15:01.936Z,0.00
2023-03-15T00:17:28.424Z,0.00
2023-03-15T00:19:54.951Z,0.00
2023-03-15T00:22:23.204Z,0.00
2023-03-15T00:24:49.738Z,0.15
2023-03-15T00:27:16.203Z,0.10
2023-03-15T00:29:42.635Z,0.10
2023-03-15T00:32:09.114Z,0.10
2023-03-15T00:34:35.598Z,0.10
2023-03-15T00:37:02.032Z,0.20
2023-03-15T00:39:28.571Z,0.10
2023-03-15T00:41:57.510Z,0.10
2023-03-15T00:44:24.530Z,0.10
2023-03-15T00:46:51.460Z,0.20
2023-03-15T00:49:18.282Z,0.20
2023-03-15T00:51:44.760Z,0.20
2023-03-15T00:54:13.768Z,0.60
2023-03-15T00:56:41.230Z,0.30
2023-03-15T00:59:08.581Z,0.30
2023-03-15T01:01:35.363Z,0.35
2023-03-15T01:04:01.823Z,0.50
2023-03-15T01:06:29.254Z,0.50
2023-03-15T01:08:56.696Z,0.43
2023-03-15T01:11:26.124Z,0.57
2023-03-15T01:13:54.415Z,0.60
2023-03-15T01:16:21.383Z,0.30
2023-03-15T01:18:48.246Z,0.65
2023-03-15T01:21:16.160Z,0.50
2023-03-15T01:23:42.788Z,0.30
2023-03-15T01:26:13.097Z,0.22
2023-03-15T01:28:39.638Z,0.50
2023-03-15T01:31:06.591Z,0.20
2023-03-15T01:33:33.060Z,0.30
2023-03-15T01:36:05.485Z,0.30
2023-03-15T01:38:32.849Z,0.40
2023-03-15T01:40:59.879Z,0.30
2023-03-15T01:43:28.365Z,0.25
2023-03-15T01:46:15.967Z,0.13
2023-03-15T01:48:45.337Z,0.10
2023-03-15T01:51:15.225Z,0.20
2023-03-15T01:53:45.725Z,0.10
2023-03-15T01:56:12.906Z,0.20
2023-03-15T01:58:42.909Z,0.25
2023-03-15T02:01:10.162Z,0.10
2023-03-15T02:03:46.486Z,0.20
2023-03-15T02:06:18.074Z,0.10
2023-03-15T02:08:53.232Z,0.20
2023-03-15T02:11:23.899Z,0.20
2023-03-15T02:13:51.383Z,0.20
2023-03-15T02:16:18.643Z,0.20
2023-03-15T02:18:45.146Z,0.20
2023-03-15T02:21:36.402Z,0.10
2023-03-15T02:24:39.069Z,0.25
2023-03-15T02:27:05.915Z,0.10
2023-03-15T02:29:32.832Z,0.20
2023-03-15T02:32:00.268Z,0.20
2023-03-15T02:34:26.915Z,0.10
2023-03-15T02:36:54.762Z,0.40
2023-03-15T02:39:22.878Z,0.10
2023-03-15T02:41:58.213Z,0.40
2023-03-15T02:44:32.532Z,0.10
2023-03-15T02:47:13.358Z,0.10
2023-03-15T02:49:43.840Z,0.30
2023-03-15T02:52:12.121Z,0.10
2023-03-15T02:54:39.324Z,0.20
2023-03-15T02:57:06.062Z,0.20
2023-03-15T02:59:32.540Z,0.20
2023-03-15T03:01:59.034Z,0.28
2023-03-15T03:04:26.306Z,0.10
2023-03-15T03:06:52.753Z,0.20
2023-03-15T03:09:19.479Z,0.20
2023-03-15T03:11:46.015Z,0.10
2023-03-15T03:14:15.851Z,0.30
2023-03-15T03:16:42.740Z,0.10
2023-03-15T03:19:14.153Z,0.17
2023-03-15T03:22:06.557Z,0.10
2023-03-15T03:24:33.751Z,0.10
2023-03-15T03:27:01.145Z,0.30
2023-03-15T03:29:27.642Z,0.20
2023-03-15T03:31:54.849Z,0.40
2023-03-15T03:34:21.343Z,0.20
2023-03-15T03:36:48.630Z,0.10
2023-03-15T03:39:15.252Z,0.10
2023-03-15T03:41:41.738Z,0.10
2023-03-15T03:44:08.225Z,1.05
2023-03-15T03:46:36.213Z,0.10
2023-03-15T03:49:02.877Z,0.10
2023-03-15T03:51:29.373Z,0.13
2023-03-15T03:53:55.871Z,0.20
2023-03-15T03:56:22.278Z,0.30
2023-03-15T03:58:48.737Z,0.10
2023-03-15T04:01:15.183Z,0.10
2023-03-15T04:03:41.630Z,0.35
2023-03-15T04:06:08.054Z,0.20
2023-03-15T04:08:34.525Z,0.17
2023-03-15T04:11:04.136Z,0.20
2023-03-15T04:13:31.344Z,0.20
2023-03-15T04:15:58.135Z,0.20
2023-03-15T04:18:24.960Z,0.20
2023-03-15T04:20:54.693Z,0.20
2023-03-15T04:23:23.389Z,0.20
2023-03-15T04:25:51.273Z,0.40
2023-03-15T04:28:19.284Z,0.30
2023-03-15T04:30:48.189Z,0.20
2023-03-15T04:33:14.712Z,0.20
2023-03-15T04:35:42.740Z,0.20
2023-03-15T04:38:09.843Z,0.20
2023-03-15T04:40:36.856Z,0.20
2023-03-15T04:43:05.656Z,0.20
2023-03-15T04:45:32.703Z,0.30
2023-03-15T04:48:02.033Z,0.10
2023-03-15T04:50:29.798Z,0.30
2023-03-15T04:52:58.089Z,0.20
2023-03-15T04:55:24.598Z,0.30
2023-03-15T04:57:51.111Z,0.45
2023-03-15T05:00:17.950Z,0.27
2023-03-15T05:02:44.437Z,0.20
2023-03-15T05:05:12.308Z,0.22
2023-03-15T05:07:39.559Z,0.28
2023-03-15T05:10:07.012Z,0.50
2023-03-15T05:12:35.193Z,0.33
2023-03-15T05:15:01.747Z,0.20
2023-03-15T05:17:29.096Z,0.25
2023-03-15T05:19:55.584Z,0.38
2023-03-15T05:22:25.547Z,0.50
2023-03-15T05:24:53.681Z,0.70
2023-03-15T05:27:23.569Z,0.30
2023-03-15T05:29:51.308Z,0.60
2023-03-15T05:32:19.602Z,0.45
2023-03-15T05:34:49.216Z,0.35
2023-03-15T05:37:17.610Z,0.40
2023-03-15T05:39:44.028Z,0.57
2023-03-15T05:42:10.679Z,0.60
2023-03-15T05:44:37.099Z,0.52
2023-03-15T05:47:03.594Z,0.82
2023-03-15T05:49:30.944Z,0.60
2023-03-15T05:51:57.449Z,0.90
2023-03-15T05:54:25.705Z,0.55
2023-03-15T05:56:52.151Z,0.30
2023-03-15T05:59:23.956Z,0.73
2023-03-15T06:01:51.092Z,0.20
2023-03-15T06:04:18.357Z,0.30
2023-03-15T06:06:47.139Z,0.73
2023-03-15T06:09:13.618Z,0.32
2023-03-15T06:11:40.143Z,0.68
2023-03-15T06:14:06.687Z,0.20
2023-03-15T06:16:33.230Z,0.40
2023-03-15T06:18:59.771Z,0.22
2023-03-15T06:21:26.303Z,0.50
2023-03-15T06:23:52.708Z,0.45
2023-03-15T06:26:19.492Z,0.50
2023-03-15T06:28:46.099Z,0.30
2023-03-15T06:31:14.106Z,0.50
2023-03-15T06:33:40.805Z,0.30
2023-03-15T06:36:07.624Z,0.32
2023-03-15T06:38:34.326Z,0.50
2023-03-15T06:41:01.225Z,1.05
2023-03-15T06:43:28.603Z,0.60
2023-03-15T06:45:56.727Z,0.95
2023-03-15T06:48:23.184Z,0.45
2023-03-15T06:50:49.764Z,0.67
2023-03-15T06:53:16.203Z,0.60
2023-03-15T06:55:42.908Z,0.55
2023-03-15T06:58:09.460Z,0.40
2023-03-15T07:00:36.120Z,0.50
2023-03-15T07:03:02.631Z,0.40
2023-03-15T07:05:29.191Z,0.50
2023-03-15T07:07:55.581Z,0.50
2023-03-15T07:10:22.112Z,0.50
2023-03-15T07:12:48.519Z,0.63
2023-03-15T07:15:17.057Z,0.40
2023-03-15T07:17:43.773Z,0.88
2023-03-15T07:20:11.073Z,0.50
2023-03-15T07:22:38.559Z,0.70
2023-03-15T07:25:07.345Z,0.45
2023-03-15T07:27:33.914Z,0.43
2023-03-15T07:30:01.063Z,0.80
2023-03-15T07:32:27.676Z,0.35
2023-03-15T07:34:58.114Z,0.70
2023-03-15T07:37:24.539Z,0.30
2023-03-15T07:39:50.950Z,0.20
2023-03-15T07:42:17.375Z,0.50
2023-03-15T07:44:43.868Z,0.75
2023-03-15T07:47:10.866Z,0.45
2023-03-15T07:49:37.274Z,0.20
2023-03-15T07:52:03.885Z,0.27
2023-03-15T07:54:31.686Z,0.30
2023-03-15T07:56:58.106Z,0.22
2023-03-15T07:59:24.634Z,0.43
2023-03-15T08:01:51.397Z,0.38
2023-03-15T08:04:17.898Z,0.60
2023-03-15T08:06:44.473Z,0.40
2023-03-15T08:09:11.992Z,0.40
2023-03-15T08:11:38.509Z,0.30
2023-03-15T08:14:05.013Z,0.32
2023-03-15T08:16:31.513Z,0.30
2023-03-15T08:18:58.070Z,0.20
2023-03-15T08:21:24.605Z,0.20
2023-03-15T08:23:51.038Z,0.20
2023-03-15T08:26:17.490Z,0.20
2023-03-15T08:28:43.937Z,0.20
2023-03-15T08:31:13.796Z,0.25
2023-03-15T08:33:40.924Z,0.15
2023-03-15T08:36:07.637Z,0.17
2023-03-15T08:38:34.389Z,0.10
2023-03-15T08:41:00.960Z,0.10
2023-03-15T08:43:27.757Z,0.30
2023-03-15T08:46:01.212Z,0.10
2023-03-15T08:48:28.615Z,0.20
2023-03-15T08:50:55.115Z,0.10
2023-03-15T08:53:21.604Z,0.13
2023-03-15T08:55:49.496Z,1.20
2023-03-15T08:58:16.400Z,0.10
2023-03-15T09:00:43.022Z,0.20
2023-03-15T09:03:09.723Z,0.30
2023-03-15T09:05:36.849Z,0.53
2023-03-15T09:08:04.420Z,0.10
2023-03-15T09:10:30.993Z,0.10
2023-03-15T09:12:57.612Z,0.65
2023-03-15T09:15:24.320Z,0.20
2023-03-15T09:17:52.983Z,0.50
2023-03-15T09:20:21.959Z,0.10
2023-03-15T09:22:56.605Z,0.10
2023-03-15T09:25:25.206Z,0.38
2023-03-15T09:27:52.238Z,0.73
2023-03-15T09:30:19.180Z,0.40
2023-03-15T09:32:46.147Z,0.00
2023-03-15T09:35:15.300Z,0.20
2023-03-15T09:37:45.471Z,0.35
2023-03-15T09:40:21.737Z,0.40
2023-03-15T09:43:01.799Z,0.23
2023-03-15T09:45:55.603Z,0.17
2023-03-15T09:48:37.801Z,0.20
2023-03-15T09:51:15.934Z,0.03
2023-03-15T09:53:54.114Z,0.00
2023-03-15T09:56:25.476Z,0.23
2023-03-15T09:58:56.347Z,0.00
2023-03-15T10:01:29.508Z,0.28
2023-03-15T10:03:56.233Z,0.30
2023-03-15T10:06:36.485Z,0.10
2023-03-15T10:09:12.640Z,0.20
2023-03-15T10:11:54.205Z,0.40
2023-03-15T10:14:42.041Z,0.10
2023-03-15T10:17:13.726Z,0.03
2023-03-15T10:19:49.643Z,0.10
2023-03-15T10:22:25.983Z,0.10
2023-03-15T10:25:05.156Z,0.20
2023-03-15T10:27:43.893Z,0.13
2023-03-15T10:30:25.205Z,0.32
2023-03-15T10:33:00.776Z,0.20
2023-03-15T10:35:27.305Z,0.10
2023-03-15T10:37:54.762Z,0.10
2023-03-15T10:40:39.976Z,0.30
2023-03-15T10:43:24.949Z,0.17
2023-03-15T10:46:00.467Z,0.20
2023-03-15T10:48:29.326Z,0.20
2023-03-15T10:50:59.062Z,0.10
2023-03-15T10:53:25.925Z,0.10
2023-03-15T10:56:06.598Z,0.40
2023-03-15T10:58:53.107Z,0.17
2023-03-15T11:01:37.573Z,0.10
2023-03-15T11:04:16.143Z,0.45
2023-03-15T11:06:47.621Z,0.20
2023-03-15T11:09:17.360Z,0.22
2023-03-15T11:12:01.534Z,0.10
2023-03-15T11:14:42.983Z,0.10
2023-03-15T11:17:23.906Z,0.20
2023-03-15T11:19:59.947Z,0.30
2023-03-15T11:22:27.044Z,0.20
2023-03-15T11:24:58.506Z,0.00
2023-03-15T11:27:26.596Z,0.10
2023-03-15T11:29:58.211Z,0.10
2023-03-15T11:32:27.981Z,0.10
2023-03-15T11:35:02.452Z,0.17
2023-03-15T11:38:03.210Z,0.22
2023-03-15T11:40:38.111Z,0.10
2023-03-15T11:43:28.300Z,0.20
2023-03-15T11:46:00.749Z,0.40
2023-03-15T11:48:43.793Z,0.47
2023-03-15T11:51:12.639Z,0.13
2023-03-15T11:54:03.453Z,0.80
2023-03-15T11:56:45.341Z,0.13
2023-03-15T11:59:15.454Z,0.40
2023-03-15T12:02:11.458Z,0.10
2023-03-15T12:04:47.825Z,0.25
2023-03-15T12:07:19.273Z,0.20
2023-03-15T12:10:12.968Z,0.10
2023-03-15T12:12:45.786Z,0.15
2023-03-15T12:15:15.335Z,0.00
2023-03-15T12:17:51.855Z,0.10
2023-03-15T12:20:27.778Z,0.10
2023-03-15T12:23:19.544Z,0.08
2023-03-15T12:25:55.552Z,0.10
2023-03-15T12:28:46.170Z,0.10
2023-03-15T12:31:14.352Z,0.10
2023-03-15T12:33:48.513Z,0.10
2023-03-15T12:36:38.229Z,0.10
2023-03-15T12:39:17.057Z,0.00
2023-03-15T12:41:45.239Z,0.10
2023-03-15T12:44:45.087Z,0.10
2023-03-15T12:47:12.630Z,0.00
2023-03-15T12:49:45.242Z,0.10
2023-03-15T12:52:11.752Z,0.10
2023-03-15T12:54:49.648Z,0.20
2023-03-15T12:57:47.627Z,0.10
2023-03-15T13:00:18.644Z,0.10
2023-03-15T13:03:06.573Z,0.10
2023-03-15T13:06:08.505Z,0.55
2023-03-15T13:08:53.384Z,0.30
2023-03-15T13:11:26.589Z,0.00
2023-03-15T13:14:13.274Z,0.10
2023-03-15T13:16:54.950Z,0.10
2023-03-15T13:19:35.601Z,0.20
2023-03-15T13:22:11.099Z,0.10
2023-03-15T13:24:57.730Z,0.10
2023-03-15T13:27:55.841Z,0.10
2023-03-15T13:30:38.712Z,0.28
2023-03-15T13:33:19.282Z,0.45
2023-03-15T13:35:48.673Z,0.32
2023-03-15T13:38:33.208Z,0.10
2023-03-15T13:41:03.584Z,0.30
2023-03-15T13:43:38.912Z,0.10
2023-03-15T13:46:05.932Z,0.20
2023-03-15T13:48:37.545Z,0.20
2023-03-15T13:51:19.134Z,0.63
2023-03-15T13:54:06.211Z,0.10
2023-03-15T13:56:48.772Z,0.10
2023-03-15T13:59:17.372Z,0.30
2023-03-15T14:01:44.687Z,0.20
2023-03-15T14:04:18.386Z,0.30
2023-03-15T14:06:45.742Z,0.10
2023-03-15T14:09:28.628Z,0.10
2023-03-15T14:12:06.454Z,0.75
2023-03-15T14:14:38.747Z,0.10
2023-03-15T14:17:25.664Z,0.15
2023-03-15T14:20:15.728Z,0.10
2023-03-15T14:22:42.573Z,0.10
2023-03-15T14:25:22.216Z,1.15
2023-03-15T14:27:48.923Z,0.10
2023-03-15T14:30:25.416Z,0.45
2023-03-15T14:32:55.846Z,0.40
2023-03-15T14:35:43.150Z,0.10
2023-03-15T14:38:21.127Z,0.10
2023-03-15T14:40:48.513Z,0.10
2023-03-15T14:43:15.349Z,0.08
2023-03-15T14:45:43.789Z,0.10
2023-03-15T14:48:27.054Z,0.20
2023-03-15T14:50:55.290Z,0.10
2023-03-15T14:53:26.083Z,0.30
2023-03-15T14:55:52.702Z,0.20
2023-03-15T14:58:21.433Z,0.10
2023-03-15T15:00:51.524Z,0.13
2023-03-15T15:03:29.428Z,0.75
2023-03-15T15:05:55.977Z,0.10
2023-03-15T15:08:22.762Z,0.17
2023-03-15T15:10:52.007Z,0.10
2023-03-15T15:13:27.548Z,0.10
2023-03-15T15:15:56.801Z,0.15
2023-03-15T15:18:26.161Z,0.10
2023-03-15T15:20:58.532Z,0.10
2023-03-15T15:23:30.375Z,0.10
2023-03-15T15:26:00.354Z,0.10
2023-03-15T15:28:37.481Z,0.10
2023-03-15T15:31:06.742Z,0.20
2023-03-15T15:33:33.977Z,0.10
2023-03-15T15:36:01.162Z,0.20
2023-03-15T15:38:34.636Z,0.40
2023-03-15T15:41:01.233Z,0.17
2023-03-15T15:43:27.720Z,0.10
2023-03-15T15:45:54.130Z,0.20
2023-03-15T15:48:20.675Z,0.10
2023-03-15T15:50:47.913Z,0.10
2023-03-15T15:53:17.582Z,0.20
2023-03-15T15:55:46.082Z,0.10
2023-03-15T15:58:13.959Z,0.10
2023-03-15T16:00:40.576Z,0.10
2023-03-15T16:03:15.080Z,0.10
2023-03-15T16:05:42.470Z,0.10
2023-03-15T16:08:24.517Z,0.10
2023-03-15T16:10:51.552Z,0.10
2023-03-15T16:13:17.999Z,0.20
2023-03-15T16:15:44.493Z,0.20
2023-03-15T16:18:12.229Z,0.20
2023-03-15T16:20:41.248Z,0.15
2023-03-15T16:23:18.925Z,0.10
2023-03-15T16:25:47.843Z,0.10
2023-03-15T16:28:14.307Z,0.20
2023-03-15T16:30:46.356Z,0.10
2023-03-15T16:33:21.448Z,0.10
2023-03-15T16:35:50.101Z,0.20
2023-03-15T16:38:24.120Z,0.07
2023-03-15T16:40:52.273Z,0.25
2023-03-15T16:43:19.197Z,0.10
2023-03-15T16:45:46.360Z,0.10
2023-03-15T16:48:13.122Z,0.10
2023-03-15T16:50:40.962Z,0.10
2023-03-15T16:53:10.341Z,0.10
2023-03-15T16:55:37.442Z,0.10
2023-03-15T16:58:18.563Z,0.10
2023-03-15T17:00:47.775Z,0.10
2023-03-15T17:03:15.343Z,0.10
2023-03-15T17:05:45.381Z,0.30
2023-03-15T17:08:17.413Z,0.20
2023-03-15T17:10:45.278Z,0.10
2023-03-15T17:13:15.700Z,0.10
2023-03-15T17:15:42.599Z,0.10
2023-03-15T17:18:21.669Z,0.10
2023-03-15T17:20:49.047Z,0.10
2023-03-15T17:23:16.410Z,0.20
2023-03-15T17:25:43.089Z,0.47
2023-03-15T17:28:09.645Z,0.10
2023-03-15T17:30:37.534Z,0.20
2023-03-15T17:33:05.056Z,0.25
2023-03-15T17:35:37.525Z,0.15
2023-03-15T17:38:06.356Z,0.10
2023-03-15T17:40:35.464Z,0.10
2023-03-15T17:43:03.924Z,0.20
2023-03-15T17:45:33.281Z,0.40
2023-03-15T17:48:01.184Z,0.60
2023-03-15T17:50:30.509Z,0.65
2023-03-15T17:53:16.010Z,0.40
2023-03-15T17:55:42.954Z,0.15
2023-03-15T17:58:18.142Z,0.20
2023-03-15T18:00:54.604Z,0.73
2023-03-15T18:03:22.678Z,0.70
2023-03-15T18:05:49.849Z,0.22
2023-03-15T18:08:18.365Z,0.35
2023-03-15T18:10:46.016Z,0.20
2023-03-15T18:13:18.529Z,0.10
2023-03-15T18:15:46.442Z,0.10
2023-03-15T18:18:12.867Z,0.20
2023-03-15T18:20:39.321Z,0.40
2023-03-15T18:23:05.841Z,2.27
2023-03-15T18:25:34.593Z,0.90
2023-03-15T18:28:01.319Z,0.60
2023-03-15T18:30:30.022Z,0.20
2023-03-15T18:32:57.601Z,0.20
2023-03-15T18:35:30.317Z,0.30
2023-03-15T18:37:57.752Z,0.43
2023-03-15T18:40:27.327Z,0.20
2023-03-15T18:42:54.967Z,0.40
2023-03-15T18:45:24.657Z,0.50
2023-03-15T18:47:51.508Z,0.40
2023-03-15T18:50:18.753Z,0.30
2023-03-15T18:52:46.051Z,0.30
2023-03-15T18:55:14.773Z,0.32
2023-03-15T18:57:41.911Z,0.90
2023-03-15T19:00:13.288Z,0.50
2023-03-15T19:02:42.143Z,0.43
2023-03-15T19:05:09.688Z,0.40
2023-03-15T19:07:36.188Z,0.47
2023-03-15T19:10:02.981Z,0.40
2023-03-15T19:12:29.437Z,0.50
2023-03-15T19:14:55.864Z,0.50
2023-03-15T19:17:22.346Z,0.40
2023-03-15T19:19:48.803Z,0.55
2023-03-15T19:22:15.295Z,0.40
2023-03-15T19:24:41.686Z,0.47
2023-03-15T19:27:08.754Z,0.60
2023-03-15T19:29:35.324Z,1.75
2023-03-15T19:32:01.723Z,1.10
2023-03-15T19:34:28.143Z,0.73
2023-03-15T19:36:54.606Z,0.63
2023-03-15T19:39:21.013Z,0.68
2023-03-15T19:41:49.282Z,0.40
2023-03-15T19:44:15.716Z,0.40
2023-03-15T19:46:42.293Z,0.60
2023-03-15T19:49:08.731Z,0.63
2023-03-15T19:51:35.255Z,0.80
2023-03-15T19:54:02.564Z,0.90
2023-03-15T19:56:29.058Z,0.50
2023-03-15T19:58:56.145Z,0.65
2023-03-15T20:01:22.764Z,0.53
2023-03-15T20:03:49.349Z,0.57
2023-03-15T20:06:15.795Z,0.90
2023-03-15T20:08:42.374Z,0.80
2023-03-15T20:11:09.884Z,0.43
2023-03-15T20:13:37.157Z,1.13
2023-03-15T20:16:04.970Z,0.73
2023-03-15T20:18:31.698Z,0.52
2023-03-15T20:21:00.498Z,1.17
2023-03-15T20:23:28.222Z,0.55
2023-03-15T20:26:25.135Z,0.80
2023-03-15T20:28:52.093Z,0.70
2023-03-15T20:31:19.342Z,0.82
2023-03-15T20:33:49.310Z,0.80
2023-03-15T20:36:17.072Z,0.70
2023-03-15T20:38:45.045Z,0.90
2023-03-15T20:41:13.874Z,0.90
2023-03-15T20:43:41.365Z,1.00
2023-03-15T20:46:10.081Z,1.15
2023-03-15T20:48:36.983Z,0.60
2023-03-15T20:51:04.130Z,2.10
2023-03-15T20:53:35.184Z,0.70
2023-03-15T20:56:03.131Z,0.73
2023-03-15T20:58:29.620Z,0.80
2023-03-15T21:01:07.494Z,0.55
2023-03-15T21:03:35.345Z,0.70
2023-03-15T21:06:03.562Z,0.70
2023-03-15T21:08:30.997Z,0.68
2023-03-15T21:10:58.257Z,0.60
2023-03-15T21:13:24.823Z,0.70
2023-03-15T21:15:53.238Z,0.53
2023-03-15T21:18:22.064Z,0.52
2023-03-15T21:20:59.632Z,0.70
2023-03-15T21:23:27.865Z,1.02
2023-03-15T21:25:55.557Z,1.38
2023-03-15T21:28:23.351Z,0.63
2023-03-15T21:30:54.317Z,1.00
2023-03-15T21:33:22.850Z,0.73
2023-03-15T21:35:49.721Z,0.60
2023-03-15T21:38:16.742Z,0.73
2023-03-15T21:40:47.188Z,0.90
2023-03-15T21:43:14.180Z,0.90
2023-03-15T21:45:42.034Z,1.17
2023-03-15T21:48:08.974Z,0.80
2023-03-15T21:50:36.436Z,0.73
2023-03-15T21:53:03.375Z,1.10
2023-03-15T21:55:33.394Z,0.85
2023-03-15T21:58:04.722Z,0.60
2023-03-15T22:00:32.493Z,0.90
2023-03-15T22:02:59.022Z,0.90
2023-03-15T22:05:25.459Z,1.30
2023-03-15T22:07:52.144Z,0.90
2023-03-15T22:10:19.743Z,1.13
2023-03-15T22:12:46.514Z,1.00
2023-03-15T22:15:14.834Z,0.88
2023-03-15T22:17:41.315Z,1.30
2023-03-15T22:20:18.353Z,1.13
2023-03-15T22:22:46.045Z,1.20
2023-03-15T22:25:13.300Z,1.00
2023-03-15T22:27:41.765Z,0.93
2023-03-15T22:30:13.453Z,0.70
2023-03-15T22:32:44.253Z,0.90
2023-03-15T22:35:12.734Z,0.90
2023-03-15T22:37:39.530Z,1.00
2023-03-15T22:40:07.317Z,0.80
2023-03-15T22:42:33.849Z,0.73
2023-03-15T22:45:00.378Z,1.00
2023-03-15T22:47:27.160Z,0.90
2023-03-15T22:49:54.645Z,0.80
2023-03-15T22:52:21.239Z,0.90
2023-03-15T22:54:47.780Z,1.40
2023-03-15T22:57:14.363Z,0.90
2023-03-15T22:59:40.933Z,1.02
2023-03-15T23:02:07.696Z,0.80
2023-03-15T23:04:34.222Z,1.00
2023-03-15T23:07:01.737Z,0.90
2023-03-15T23:09:28.395Z,1.30
2023-03-15T23:11:55.044Z,0.93
2023-03-15T23:14:21.742Z,0.70
2023-03-15T23:16:48.898Z,0.90
2023-03-15T23:19:15.429Z,1.10
2023-03-15T23:21:41.978Z,0.68
2023-03-15T23:24:09.304Z,1.08
2023-03-15T23:26:37.611Z,0.90
2023-03-15T23:29:10.852Z,1.23
2023-03-15T23:31:41.867Z,1.10
2023-03-15T23:34:09.026Z,0.95
2023-03-15T23:36:36.384Z,1.02
2023-03-15T23:39:03.252Z,1.00
2023-03-15T23:41:29.765Z,1.00
2023-03-15T23:43:56.409Z,0.90
2023-03-15T23:46:25.797Z,0.80
2023-03-15T23:48:55.382Z,0.73
2023-03-15T23:51:22.262Z,1.30
2023-03-15T23:53:48.776Z,0.82
2023-03-15T23:56:15.228Z,0.90
2023-03-15T23:58:42.047Z,0.73
